sensor_id;sensor_type;location;lat;lon;timestamp;P1;durP1;ratioP1;P2;durP2;ratioP2
11346;SDS011;5728;42.722;23.258;2022-09-12T00:01:04;8.37;;;5.97;;
11346;SDS011;5728;42.722;23.258;2022-09-12T00:03:32;6.23;;;5.63;;
11346;SDS011;5728;42.722;23.258;2022-09-12T00:05:59;7.43;;;6.67;;
11346;SDS011;5728;42.722;23.258;2022-09-12T00:08:26;7.37;;;6.53;;
11346;SDS011;5728;42.722;23.258;2022-09-12T00:10:54;10.73;;;6.50;;
11346;SDS011;5728;42.722;23.258;2022-09-12T00:13:21;9.40;;;6.77;;
11346;SDS011;5728;42.722;23.258;2022-09-12T00:15:48;7.10;;;6.33;;
11346;SDS011;5728;42.722;23.258;2022-09-12T00:18:15;9.20;;;6.10;;
11346;SDS011;5728;42.722;23.258;2022-09-12T00:20:42;9.03;;;6.27;;
11346;SDS011;5728;42.722;23.258;2022-09-12T00:23:09;7.37;;;5.20;;
11346;SDS011;5728;42.722;23.258;2022-09-12T00:25:40;7.50;;;6.70;;
11346;SDS011;5728;42.722;23.258;2022-09-12T00:28:09;8.13;;;6.50;;
11346;SDS011;5728;42.722;23.258;2022-09-12T00:30:39;11.77;;;6.37;;
11346;SDS011;5728;42.722;23.258;2022-09-12T00:33:07;6.07;;;5.53;;
11346;SDS011;5728;42.722;23.258;2022-09-12T00:35:39;9.50;;;6.70;;
11346;SDS011;5728;42.722;23.258;2022-09-12T00:38:07;8.53;;;5.47;;
11346;SDS011;5728;42.722;23.258;2022-09-12T00:40:34;6.47;;;5.40;;
11346;SDS011;5728;42.722;23.258;2022-09-12T00:43:00;7.30;;;6.17;;
11346;SDS011;5728;42.722;23.258;2022-09-12T00:45:29;6.13;;;5.53;;
11346;SDS011;5728;42.722;23.258;2022-09-12T00:47:57;5.40;;;4.90;;
11346;SDS011;5728;42.722;23.258;2022-09-12T00:50:27;8.47;;;5.63;;
11346;SDS011;5728;42.722;23.258;2022-09-12T00:52:57;7.20;;;5.00;;
11346;SDS011;5728;42.722;23.258;2022-09-12T00:55:29;5.93;;;5.17;;
11346;SDS011;5728;42.722;23.258;2022-09-12T00:58:00;7.17;;;4.87;;
11346;SDS011;5728;42.722;23.258;2022-09-12T01:00:33;7.10;;;5.33;;
11346;SDS011;5728;42.722;23.258;2022-09-12T01:03:00;7.00;;;5.50;;
11346;SDS011;5728;42.722;23.258;2022-09-12T01:05:30;5.40;;;4.90;;
11346;SDS011;5728;42.722;23.258;2022-09-12T01:08:00;5.53;;;5.03;;
11346;SDS011;5728;42.722;23.258;2022-09-12T01:10:29;7.43;;;5.57;;
11346;SDS011;5728;42.722;23.258;2022-09-12T01:12:56;5.60;;;5.10;;
11346;SDS011;5728;42.722;23.258;2022-09-12T01:15:24;5.90;;;5.23;;
11346;SDS011;5728;42.722;23.258;2022-09-12T01:17:57;5.63;;;4.90;;
11346;SDS011;5728;42.722;23.258;2022-09-12T01:20:39;10.03;;;5.30;;
11346;SDS011;5728;42.722;23.258;2022-09-12T01:23:32;7.00;;;5.37;;
11346;SDS011;5728;42.722;23.258;2022-09-12T01:29:13;6.73;;;4.93;;
11346;SDS011;5728;42.722;23.258;2022-09-12T01:32:02;6.37;;;4.10;;
11346;SDS011;5728;42.722;23.258;2022-09-12T01:34:33;5.17;;;4.67;;
11346;SDS011;5728;42.722;23.258;2022-09-12T01:37:09;9.13;;;4.80;;
11346;SDS011;5728;42.722;23.258;2022-09-12T01:39:42;5.20;;;4.73;;
11346;SDS011;5728;42.722;23.258;2022-09-12T01:42:17;6.27;;;5.10;;
11346;SDS011;5728;42.722;23.258;2022-09-12T01:44:52;7.13;;;4.77;;
11346;SDS011;5728;42.722;23.258;2022-09-12T01:47:30;6.00;;;5.30;;
11346;SDS011;5728;42.722;23.258;2022-09-12T01:50:06;4.80;;;4.40;;
11346;SDS011;5728;42.722;23.258;2022-09-12T01:52:36;4.97;;;4.53;;
11346;SDS011;5728;42.722;23.258;2022-09-12T01:55:08;7.73;;;5.23;;
11346;SDS011;5728;42.722;23.258;2022-09-12T01:57:41;8.40;;;5.10;;
11346;SDS011;5728;42.722;23.258;2022-09-12T02:00:12;5.37;;;4.87;;
11346;SDS011;5728;42.722;23.258;2022-09-12T02:02:41;6.33;;;5.00;;
11346;SDS011;5728;42.722;23.258;2022-09-12T02:05:15;6.60;;;4.77;;
11346;SDS011;5728;42.722;23.258;2022-09-12T02:07:46;6.03;;;4.87;;
11346;SDS011;5728;42.722;23.258;2022-09-12T02:10:18;5.80;;;4.60;;
11346;SDS011;5728;42.722;23.258;2022-09-12T02:12:47;6.40;;;4.70;;
11346;SDS011;5728;42.722;23.258;2022-09-12T02:15:22;7.07;;;4.50;;
11346;SDS011;5728;42.722;23.258;2022-09-12T02:17:55;5.37;;;4.57;;
11346;SDS011;5728;42.722;23.258;2022-09-12T02:20:27;5.80;;;5.23;;
11346;SDS011;5728;42.722;23.258;2022-09-12T02:22:56;5.40;;;4.23;;
11346;SDS011;5728;42.722;23.258;2022-09-12T02:25:24;6.20;;;4.10;;
11346;SDS011;5728;42.722;23.258;2022-09-12T02:27:55;5.40;;;4.90;;
11346;SDS011;5728;42.722;23.258;2022-09-12T02:30:27;5.07;;;4.20;;
11346;SDS011;5728;42.722;23.258;2022-09-12T02:33:05;5.97;;;4.60;;
11346;SDS011;5728;42.722;23.258;2022-09-12T02:35:38;8.67;;;4.50;;
11346;SDS011;5728;42.722;23.258;2022-09-12T02:38:12;6.27;;;4.37;;
11346;SDS011;5728;42.722;23.258;2022-09-12T02:40:42;5.80;;;4.33;;
11346;SDS011;5728;42.722;23.258;2022-09-12T02:43:10;6.63;;;4.10;;
11346;SDS011;5728;42.722;23.258;2022-09-12T02:45:36;5.87;;;4.10;;
11346;SDS011;5728;42.722;23.258;2022-09-12T02:48:06;5.30;;;4.20;;
11346;SDS011;5728;42.722;23.258;2022-09-12T02:50:37;6.60;;;5.23;;
11346;SDS011;5728;42.722;23.258;2022-09-12T02:53:06;8.93;;;4.30;;
11346;SDS011;5728;42.722;23.258;2022-09-12T02:55:34;4.73;;;4.23;;
11346;SDS011;5728;42.722;23.258;2022-09-12T02:58:03;5.37;;;4.87;;
11346;SDS011;5728;42.722;23.258;2022-09-12T03:00:33;5.60;;;5.00;;
11346;SDS011;5728;42.722;23.258;2022-09-12T03:03:19;7.47;;;5.30;;
11346;SDS011;5728;42.722;23.258;2022-09-12T03:05:53;5.40;;;4.90;;
11346;SDS011;5728;42.722;23.258;2022-09-12T03:11:24;5.30;;;4.53;;
11346;SDS011;5728;42.722;23.258;2022-09-12T03:14:01;9.57;;;5.67;;
11346;SDS011;5728;42.722;23.258;2022-09-12T03:16:40;6.40;;;5.57;;
11346;SDS011;5728;42.722;23.258;2022-09-12T03:19:22;5.70;;;5.17;;
11346;SDS011;5728;42.722;23.258;2022-09-12T03:21:57;6.63;;;5.43;;
11346;SDS011;5728;42.722;23.258;2022-09-12T03:24:30;6.53;;;5.63;;
11346;SDS011;5728;42.722;23.258;2022-09-12T03:27:00;6.57;;;5.90;;
11346;SDS011;5728;42.722;23.258;2022-09-12T03:29:34;10.90;;;5.60;;
11346;SDS011;5728;42.722;23.258;2022-09-12T03:32:02;7.30;;;6.17;;
11346;SDS011;5728;42.722;23.258;2022-09-12T03:34:31;8.17;;;6.07;;
11346;SDS011;5728;42.722;23.258;2022-09-12T03:36:57;7.03;;;6.37;;
11346;SDS011;5728;42.722;23.258;2022-09-12T03:39:24;7.50;;;6.47;;
11346;SDS011;5728;42.722;23.258;2022-09-12T03:41:52;7.23;;;6.53;;
11346;SDS011;5728;42.722;23.258;2022-09-12T03:44:18;7.70;;;6.23;;
11346;SDS011;5728;42.722;23.258;2022-09-12T03:46:45;9.60;;;7.00;;
11346;SDS011;5728;42.722;23.258;2022-09-12T03:49:12;7.50;;;6.60;;
11346;SDS011;5728;42.722;23.258;2022-09-12T03:51:40;10.93;;;6.77;;
11346;SDS011;5728;42.722;23.258;2022-09-12T03:54:07;8.90;;;6.70;;
11346;SDS011;5728;42.722;23.258;2022-09-12T03:56:35;7.37;;;6.67;;
11346;SDS011;5728;42.722;23.258;2022-09-12T03:59:03;7.30;;;5.67;;
11346;SDS011;5728;42.722;23.258;2022-09-12T04:01:30;6.80;;;6.10;;
11346;SDS011;5728;42.722;23.258;2022-09-12T04:03:57;9.47;;;7.60;;
11346;SDS011;5728;42.722;23.258;2022-09-12T04:06:24;6.93;;;6.23;;
11346;SDS011;5728;42.722;23.258;2022-09-12T04:08:53;10.07;;;6.13;;
11346;SDS011;5728;42.722;23.258;2022-09-12T04:11:20;5.83;;;5.23;;
11346;SDS011;5728;42.722;23.258;2022-09-12T04:13:48;12.97;;;6.10;;
11346;SDS011;5728;42.722;23.258;2022-09-12T04:16:15;6.17;;;5.60;;
11346;SDS011;5728;42.722;23.258;2022-09-12T04:18:43;6.70;;;5.97;;
11346;SDS011;5728;42.722;23.258;2022-09-12T04:21:11;7.33;;;5.57;;
11346;SDS011;5728;42.722;23.258;2022-09-12T04:23:39;6.60;;;5.97;;
11346;SDS011;5728;42.722;23.258;2022-09-12T04:26:07;7.90;;;5.10;;
11346;SDS011;5728;42.722;23.258;2022-09-12T04:28:36;5.70;;;5.03;;
11346;SDS011;5728;42.722;23.258;2022-09-12T04:31:04;6.03;;;5.30;;
11346;SDS011;5728;42.722;23.258;2022-09-12T04:33:33;7.77;;;6.20;;
11346;SDS011;5728;42.722;23.258;2022-09-12T04:36:04;6.37;;;5.77;;
11346;SDS011;5728;42.722;23.258;2022-09-12T04:38:32;6.57;;;5.77;;
11346;SDS011;5728;42.722;23.258;2022-09-12T04:41:00;8.57;;;6.20;;
11346;SDS011;5728;42.722;23.258;2022-09-12T04:43:29;6.90;;;6.20;;
11346;SDS011;5728;42.722;23.258;2022-09-12T04:45:56;8.80;;;6.23;;
11346;SDS011;5728;42.722;23.258;2022-09-12T04:48:30;9.43;;;5.87;;
11346;SDS011;5728;42.722;23.258;2022-09-12T04:51:04;6.07;;;5.37;;
11346;SDS011;5728;42.722;23.258;2022-09-12T04:53:33;6.23;;;5.57;;
11346;SDS011;5728;42.722;23.258;2022-09-12T04:56:00;6.37;;;5.30;;
11346;SDS011;5728;42.722;23.258;2022-09-12T04:58:29;7.10;;;5.70;;
11346;SDS011;5728;42.722;23.258;2022-09-12T05:01:02;7.10;;;6.37;;
11346;SDS011;5728;42.722;23.258;2022-09-12T05:03:30;9.20;;;5.37;;
11346;SDS011;5728;42.722;23.258;2022-09-12T05:05:57;5.37;;;4.87;;
11346;SDS011;5728;42.722;23.258;2022-09-12T05:08:24;5.43;;;4.77;;
11346;SDS011;5728;42.722;23.258;2022-09-12T05:10:50;5.60;;;4.47;;
11346;SDS011;5728;42.722;23.258;2022-09-12T05:13:17;7.40;;;5.07;;
11346;SDS011;5728;42.722;23.258;2022-09-12T05:15:53;5.17;;;4.67;;
11346;SDS011;5728;42.722;23.258;2022-09-12T05:18:20;5.93;;;5.03;;
11346;SDS011;5728;42.722;23.258;2022-09-12T05:20:47;6.10;;;5.23;;
11346;SDS011;5728;42.722;23.258;2022-09-12T05:23:14;6.47;;;4.87;;
11346;SDS011;5728;42.722;23.258;2022-09-12T05:25:46;7.30;;;5.83;;
11346;SDS011;5728;42.722;23.258;2022-09-12T05:28:14;6.13;;;5.10;;
11346;SDS011;5728;42.722;23.258;2022-09-12T05:30:40;5.40;;;4.90;;
11346;SDS011;5728;42.722;23.258;2022-09-12T05:33:09;5.73;;;5.00;;
11346;SDS011;5728;42.722;23.258;2022-09-12T05:35:35;6.90;;;5.00;;
11346;SDS011;5728;42.722;23.258;2022-09-12T05:38:02;7.67;;;5.33;;
11346;SDS011;5728;42.722;23.258;2022-09-12T05:40:30;5.07;;;4.57;;
11346;SDS011;5728;42.722;23.258;2022-09-12T05:42:57;5.53;;;4.37;;
11346;SDS011;5728;42.722;23.258;2022-09-12T05:45:24;5.27;;;4.43;;
11346;SDS011;5728;42.722;23.258;2022-09-12T05:47:52;4.40;;;4.00;;
11346;SDS011;5728;42.722;23.258;2022-09-12T05:50:20;7.33;;;4.67;;
11346;SDS011;5728;42.722;23.258;2022-09-12T05:52:47;5.13;;;4.43;;
11346;SDS011;5728;42.722;23.258;2022-09-12T05:55:14;5.83;;;4.93;;
11346;SDS011;5728;42.722;23.258;2022-09-12T05:57:42;4.97;;;4.10;;
11346;SDS011;5728;42.722;23.258;2022-09-12T06:00:11;4.83;;;4.40;;
11346;SDS011;5728;42.722;23.258;2022-09-12T06:02:39;4.57;;;4.18;;
11346;SDS011;5728;42.722;23.258;2022-09-12T06:05:06;7.35;;;4.65;;
11346;SDS011;5728;42.722;23.258;2022-09-12T06:07:34;3.97;;;3.58;;
11346;SDS011;5728;42.722;23.258;2022-09-12T06:10:01;6.45;;;4.22;;
11346;SDS011;5728;42.722;23.258;2022-09-12T06:12:29;4.40;;;4.00;;
11346;SDS011;5728;42.722;23.258;2022-09-12T06:14:56;7.28;;;4.25;;
11346;SDS011;5728;42.722;23.258;2022-09-12T06:17:23;4.43;;;3.90;;
11346;SDS011;5728;42.722;23.258;2022-09-12T06:19:50;4.85;;;4.35;;
11346;SDS011;5728;42.722;23.258;2022-09-12T06:22:17;4.95;;;3.92;;
11346;SDS011;5728;42.722;23.258;2022-09-12T06:24:45;5.53;;;3.90;;
11346;SDS011;5728;42.722;23.258;2022-09-12T06:27:12;4.82;;;4.07;;
11346;SDS011;5728;42.722;23.258;2022-09-12T06:29:39;4.38;;;4.00;;
11346;SDS011;5728;42.722;23.258;2022-09-12T06:32:06;5.18;;;4.55;;
11346;SDS011;5728;42.722;23.258;2022-09-12T06:34:34;5.53;;;5.03;;
11346;SDS011;5728;42.722;23.258;2022-09-12T06:37:01;7.40;;;5.07;;
11346;SDS011;5728;42.722;23.258;2022-09-12T06:39:28;5.05;;;4.07;;
11346;SDS011;5728;42.722;23.258;2022-09-12T06:41:59;4.15;;;3.75;;
11346;SDS011;5728;42.722;23.258;2022-09-12T06:44:25;5.95;;;4.57;;
11346;SDS011;5728;42.722;23.258;2022-09-12T06:46:53;4.00;;;3.67;;
11346;SDS011;5728;42.722;23.258;2022-09-12T06:49:20;5.60;;;4.38;;
11346;SDS011;5728;42.722;23.258;2022-09-12T06:51:47;5.47;;;3.97;;
11346;SDS011;5728;42.722;23.258;2022-09-12T06:54:14;4.35;;;3.95;;
11346;SDS011;5728;42.722;23.258;2022-09-12T06:56:41;5.70;;;3.92;;
11346;SDS011;5728;42.722;23.258;2022-09-12T06:59:10;4.72;;;4.32;;
11346;SDS011;5728;42.722;23.258;2022-09-12T07:01:37;4.68;;;4.28;;
11346;SDS011;5728;42.722;23.258;2022-09-12T07:04:05;4.65;;;3.65;;
11346;SDS011;5728;42.722;23.258;2022-09-12T07:06:34;4.43;;;4.03;;
11346;SDS011;5728;42.722;23.258;2022-09-12T07:09:03;4.15;;;3.75;;
11346;SDS011;5728;42.722;23.258;2022-09-12T07:11:32;5.22;;;3.42;;
11346;SDS011;5728;42.722;23.258;2022-09-12T07:14:01;4.05;;;3.75;;
11346;SDS011;5728;42.722;23.258;2022-09-12T07:16:30;4.53;;;4.13;;
11346;SDS011;5728;42.722;23.258;2022-09-12T07:18:58;4.15;;;3.75;;
11346;SDS011;5728;42.722;23.258;2022-09-12T07:21:26;4.50;;;4.10;;
11346;SDS011;5728;42.722;23.258;2022-09-12T07:23:54;10.35;;;4.35;;
11346;SDS011;5728;42.722;23.258;2022-09-12T07:26:22;5.88;;;3.92;;
11346;SDS011;5728;42.722;23.258;2022-09-12T07:28:50;5.72;;;5.22;;
11346;SDS011;5728;42.722;23.258;2022-09-12T07:31:18;4.35;;;3.95;;
11346;SDS011;5728;42.722;23.258;2022-09-12T07:33:48;6.13;;;4.22;;
11346;SDS011;5728;42.722;23.258;2022-09-12T07:36:16;4.55;;;4.15;;
11346;SDS011;5728;42.722;23.258;2022-09-12T07:38:43;12.30;;;4.05;;
11346;SDS011;5728;42.722;23.258;2022-09-12T07:41:11;4.60;;;4.15;;
11346;SDS011;5728;42.722;23.258;2022-09-12T07:43:38;5.43;;;4.93;;
11346;SDS011;5728;42.722;23.258;2022-09-12T07:46:06;4.03;;;3.63;;
11346;SDS011;5728;42.722;23.258;2022-09-12T07:48:33;4.60;;;4.28;;
11346;SDS011;5728;42.722;23.258;2022-09-12T07:51:02;5.53;;;4.35;;
11346;SDS011;5728;42.722;23.258;2022-09-12T07:53:32;5.05;;;4.63;;
11346;SDS011;5728;42.722;23.258;2022-09-12T07:56:00;4.45;;;4.05;;
11346;SDS011;5728;42.722;23.258;2022-09-12T07:58:28;4.22;;;3.90;;
11346;SDS011;5728;42.722;23.258;2022-09-12T08:01:00;5.88;;;3.85;;
11346;SDS011;5728;42.722;23.258;2022-09-12T08:03:27;4.20;;;3.80;;
11346;SDS011;5728;42.722;23.258;2022-09-12T08:06:00;3.70;;;3.40;;
11346;SDS011;5728;42.722;23.258;2022-09-12T08:08:29;4.68;;;3.55;;
11346;SDS011;5728;42.722;23.258;2022-09-12T08:10:56;3.70;;;3.40;;
11346;SDS011;5728;42.722;23.258;2022-09-12T08:13:24;3.65;;;3.35;;
11346;SDS011;5728;42.722;23.258;2022-09-12T08:15:50;4.47;;;3.60;;
11346;SDS011;5728;42.722;23.258;2022-09-12T08:18:17;3.58;;;3.28;;
11346;SDS011;5728;42.722;23.258;2022-09-12T08:20:44;3.15;;;2.95;;
11346;SDS011;5728;42.722;23.258;2022-09-12T08:23:13;4.15;;;3.85;;
11346;SDS011;5728;42.722;23.258;2022-09-12T08:25:39;4.07;;;3.15;;
11346;SDS011;5728;42.722;23.258;2022-09-12T08:28:06;3.38;;;3.08;;
11346;SDS011;5728;42.722;23.258;2022-09-12T08:30:33;3.50;;;3.20;;
11346;SDS011;5728;42.722;23.258;2022-09-12T08:33:00;3.10;;;2.90;;
11346;SDS011;5728;42.722;23.258;2022-09-12T08:35:27;3.92;;;3.50;;
11346;SDS011;5728;42.722;23.258;2022-09-12T08:37:54;4.05;;;3.75;;
11346;SDS011;5728;42.722;23.258;2022-09-12T08:40:22;3.83;;;3.45;;
11346;SDS011;5728;42.722;23.258;2022-09-12T08:42:51;3.90;;;3.50;;
11346;SDS011;5728;42.722;23.258;2022-09-12T08:45:24;3.38;;;3.08;;
11346;SDS011;5728;42.722;23.258;2022-09-12T08:47:59;3.05;;;2.75;;
11346;SDS011;5728;42.722;23.258;2022-09-12T08:50:32;3.13;;;2.85;;
11346;SDS011;5728;42.722;23.258;2022-09-12T08:52:59;3.83;;;3.30;;
11346;SDS011;5728;42.722;23.258;2022-09-12T08:55:32;5.63;;;3.00;;
11346;SDS011;5728;42.722;23.258;2022-09-12T08:58:08;3.65;;;3.35;;
11346;SDS011;5728;42.722;23.258;2022-09-12T09:00:41;5.93;;;3.42;;
11346;SDS011;5728;42.722;23.258;2022-09-12T09:03:19;4.85;;;3.50;;
11346;SDS011;5728;42.722;23.258;2022-09-12T09:06:03;5.78;;;4.05;;
11346;SDS011;5728;42.722;23.258;2022-09-12T09:08:41;7.53;;;4.00;;
11346;SDS011;5728;42.722;23.258;2022-09-12T09:11:17;5.82;;;3.70;;
11346;SDS011;5728;42.722;23.258;2022-09-12T09:13:54;4.45;;;4.05;;
11346;SDS011;5728;42.722;23.258;2022-09-12T09:16:48;3.75;;;3.45;;
11346;SDS011;5728;42.722;23.258;2022-09-12T09:19:18;12.73;;;4.20;;
11346;SDS011;5728;42.722;23.258;2022-09-12T09:21:50;4.10;;;3.70;;
11346;SDS011;5728;42.722;23.258;2022-09-12T09:24:23;4.93;;;3.72;;
11346;SDS011;5728;42.722;23.258;2022-09-12T09:26:55;4.47;;;4.07;;
11346;SDS011;5728;42.722;23.258;2022-09-12T09:29:26;3.95;;;3.65;;
11346;SDS011;5728;42.722;23.258;2022-09-12T09:31:59;3.92;;;3.63;;
11346;SDS011;5728;42.722;23.258;2022-09-12T09:34:30;3.60;;;3.30;;
11346;SDS011;5728;42.722;23.258;2022-09-12T09:36:58;5.18;;;3.47;;
11346;SDS011;5728;42.722;23.258;2022-09-12T09:39:34;6.22;;;3.42;;
11346;SDS011;5728;42.722;23.258;2022-09-12T09:42:17;3.97;;;3.67;;
11346;SDS011;5728;42.722;23.258;2022-09-12T09:44:51;3.10;;;2.90;;
11346;SDS011;5728;42.722;23.258;2022-09-12T09:47:21;4.85;;;3.35;;
11346;SDS011;5728;42.722;23.258;2022-09-12T09:49:48;5.03;;;3.55;;
11346;SDS011;5728;42.722;23.258;2022-09-12T09:52:15;3.42;;;3.13;;
11346;SDS011;5728;42.722;23.258;2022-09-12T09:54:50;4.95;;;3.55;;
11346;SDS011;5728;42.722;23.258;2022-09-12T09:57:38;4.07;;;3.60;;
11346;SDS011;5728;42.722;23.258;2022-09-12T10:00:20;8.05;;;3.72;;
11346;SDS011;5728;42.722;23.258;2022-09-12T10:02:59;3.45;;;3.15;;
11346;SDS011;5728;42.722;23.258;2022-09-12T10:05:32;4.63;;;3.22;;
11346;SDS011;5728;42.722;23.258;2022-09-12T10:08:02;4.75;;;3.90;;
11346;SDS011;5728;42.722;23.258;2022-09-12T10:10:32;3.75;;;3.45;;
11346;SDS011;5728;42.722;23.258;2022-09-12T10:13:07;4.40;;;4.00;;
11346;SDS011;5728;42.722;23.258;2022-09-12T10:15:54;4.43;;;3.80;;
11346;SDS011;5728;42.722;23.258;2022-09-12T10:18:32;4.00;;;3.70;;
11346;SDS011;5728;42.722;23.258;2022-09-12T10:21:00;4.68;;;4.20;;
11346;SDS011;5728;42.722;23.258;2022-09-12T10:23:29;5.85;;;3.80;;
11346;SDS011;5728;42.722;23.258;2022-09-12T10:26:02;4.15;;;3.75;;
11346;SDS011;5728;42.722;23.258;2022-09-12T10:28:35;6.85;;;3.60;;
11346;SDS011;5728;42.722;23.258;2022-09-12T10:31:04;9.43;;;3.38;;
11346;SDS011;5728;42.722;23.258;2022-09-12T10:33:33;4.82;;;3.80;;
11346;SDS011;5728;42.722;23.258;2022-09-12T10:36:07;4.00;;;3.70;;
11346;SDS011;5728;42.722;23.258;2022-09-12T10:38:34;3.63;;;3.33;;
11346;SDS011;5728;42.722;23.258;2022-09-12T10:41:02;5.10;;;2.95;;
11346;SDS011;5728;42.722;23.258;2022-09-12T10:43:34;3.58;;;3.28;;
11346;SDS011;5728;42.722;23.258;2022-09-12T10:49:19;3.65;;;3.35;;
11346;SDS011;5728;42.722;23.258;2022-09-12T10:51:51;4.63;;;3.65;;
11346;SDS011;5728;42.722;23.258;2022-09-12T10:54:20;3.42;;;3.13;;
11346;SDS011;5728;42.722;23.258;2022-09-12T10:56:51;3.90;;;3.60;;
11346;SDS011;5728;42.722;23.258;2022-09-12T10:59:37;4.22;;;3.83;;
11346;SDS011;5728;42.722;23.258;2022-09-12T11:02:26;4.30;;;3.90;;
11346;SDS011;5728;42.722;23.258;2022-09-12T11:04:57;4.45;;;4.05;;
11346;SDS011;5728;42.722;23.258;2022-09-12T11:07:34;3.95;;;3.60;;
11346;SDS011;5728;42.722;23.258;2022-09-12T11:10:14;4.00;;;3.70;;
11346;SDS011;5728;42.722;23.258;2022-09-12T11:12:48;4.82;;;4.40;;
11346;SDS011;5728;42.722;23.258;2022-09-12T11:15:32;4.40;;;4.00;;
11346;SDS011;5728;42.722;23.258;2022-09-12T11:18:08;4.35;;;3.92;;
11346;SDS011;5728;42.722;23.258;2022-09-12T11:21:03;6.32;;;3.35;;
11346;SDS011;5728;42.722;23.258;2022-09-12T11:24:00;4.60;;;4.20;;
11346;SDS011;5728;42.722;23.258;2022-09-12T11:26:58;3.90;;;3.33;;
11346;SDS011;5728;42.722;23.258;2022-09-12T11:29:35;4.55;;;3.65;;
11346;SDS011;5728;42.722;23.258;2022-09-12T11:32:29;7.72;;;3.80;;
11346;SDS011;5728;42.722;23.258;2022-09-12T11:35:11;4.05;;;3.75;;
11346;SDS011;5728;42.722;23.258;2022-09-12T11:37:49;3.97;;;3.67;;
11346;SDS011;5728;42.722;23.258;2022-09-12T11:40:32;8.77;;;3.25;;
11346;SDS011;5728;42.722;23.258;2022-09-12T11:43:06;8.88;;;2.80;;
11346;SDS011;5728;42.722;23.258;2022-09-12T11:45:45;5.18;;;2.70;;
11346;SDS011;5728;42.722;23.258;2022-09-12T11:48:17;7.25;;;3.15;;
11346;SDS011;5728;42.722;23.258;2022-09-12T11:50:56;3.22;;;2.78;;
11346;SDS011;5728;42.722;23.258;2022-09-12T11:53:27;3.10;;;2.80;;
11346;SDS011;5728;42.722;23.258;2022-09-12T11:56:01;5.93;;;3.35;;
11346;SDS011;5728;42.722;23.258;2022-09-12T11:58:31;3.20;;;2.97;;
11346;SDS011;5728;42.722;23.258;2022-09-12T12:01:02;2.60;;;2.40;;
11346;SDS011;5728;42.722;23.258;2022-09-12T12:03:40;2.45;;;2.28;;
11346;SDS011;5728;42.722;23.258;2022-09-12T12:06:10;3.05;;;2.75;;
11346;SDS011;5728;42.722;23.258;2022-09-12T12:08:42;2.30;;;2.10;;
11346;SDS011;5728;42.722;23.258;2022-09-12T12:11:11;2.60;;;2.40;;
11346;SDS011;5728;42.722;23.258;2022-09-12T12:13:40;2.65;;;2.42;;
11346;SDS011;5728;42.722;23.258;2022-09-12T12:16:12;3.58;;;2.40;;
11346;SDS011;5728;42.722;23.258;2022-09-12T12:18:54;2.55;;;2.35;;
11346;SDS011;5728;42.722;23.258;2022-09-12T12:21:36;2.70;;;2.50;;
11346;SDS011;5728;42.722;23.258;2022-09-12T12:24:13;2.83;;;2.63;;
11346;SDS011;5728;42.722;23.258;2022-09-12T12:29:38;2.63;;;2.08;;
11346;SDS011;5728;42.722;23.258;2022-09-12T12:37:57;4.50;;;2.90;;
11346;SDS011;5728;42.722;23.258;2022-09-12T12:40:26;2.53;;;2.33;;
11346;SDS011;5728;42.722;23.258;2022-09-12T12:42:58;2.80;;;2.60;;
11346;SDS011;5728;42.722;23.258;2022-09-12T12:45:46;3.10;;;2.90;;
11346;SDS011;5728;42.722;23.258;2022-09-12T12:48:45;10.60;;;2.67;;
11346;SDS011;5728;42.722;23.258;2022-09-12T12:51:33;3.50;;;2.65;;
11346;SDS011;5728;42.722;23.258;2022-09-12T12:57:28;2.83;;;2.63;;
11346;SDS011;5728;42.722;23.258;2022-09-12T13:00:26;3.25;;;2.95;;
11346;SDS011;5728;42.722;23.258;2022-09-12T13:02:58;2.83;;;2.63;;
11346;SDS011;5728;42.722;23.258;2022-09-12T13:05:28;3.35;;;3.05;;
11346;SDS011;5728;42.722;23.258;2022-09-12T13:08:05;3.40;;;3.10;;
11346;SDS011;5728;42.722;23.258;2022-09-12T13:10:36;3.45;;;3.15;;
11346;SDS011;5728;42.722;23.258;2022-09-12T13:13:05;3.47;;;3.17;;
11346;SDS011;5728;42.722;23.258;2022-09-12T13:15:47;5.25;;;3.55;;
11346;SDS011;5728;42.722;23.258;2022-09-12T13:18:19;4.05;;;3.75;;
11346;SDS011;5728;42.722;23.258;2022-09-12T13:20:53;3.20;;;2.90;;
11346;SDS011;5728;42.722;23.258;2022-09-12T13:23:35;3.55;;;3.25;;
11346;SDS011;5728;42.722;23.258;2022-09-12T13:26:08;4.00;;;3.70;;
11346;SDS011;5728;42.722;23.258;2022-09-12T13:28:37;5.55;;;3.53;;
11346;SDS011;5728;42.722;23.258;2022-09-12T13:31:06;3.70;;;3.30;;
11346;SDS011;5728;42.722;23.258;2022-09-12T13:33:41;3.40;;;3.10;;
11346;SDS011;5728;42.722;23.258;2022-09-12T13:39:13;4.18;;;3.65;;
11346;SDS011;5728;42.722;23.258;2022-09-12T13:41:52;3.92;;;3.63;;
11346;SDS011;5728;42.722;23.258;2022-09-12T13:44:57;4.32;;;3.92;;
11346;SDS011;5728;42.722;23.258;2022-09-12T13:47:29;3.08;;;2.88;;
11346;SDS011;5728;42.722;23.258;2022-09-12T13:49:58;4.28;;;3.45;;
11346;SDS011;5728;42.722;23.258;2022-09-12T13:52:27;4.05;;;3.50;;
11346;SDS011;5728;42.722;23.258;2022-09-12T13:54:57;4.55;;;4.15;;
11346;SDS011;5728;42.722;23.258;2022-09-12T13:57:31;4.38;;;3.97;;
11346;SDS011;5728;42.722;23.258;2022-09-12T14:00:04;4.47;;;4.07;;
11346;SDS011;5728;42.722;23.258;2022-09-12T14:02:34;5.03;;;4.47;;
11346;SDS011;5728;42.722;23.258;2022-09-12T14:05:09;4.53;;;4.13;;
11346;SDS011;5728;42.722;23.258;2022-09-12T14:07:38;4.20;;;3.53;;
11346;SDS011;5728;42.722;23.258;2022-09-12T14:10:16;6.50;;;4.28;;
11346;SDS011;5728;42.722;23.258;2022-09-12T14:12:50;4.20;;;3.80;;
11346;SDS011;5728;42.722;23.258;2022-09-12T14:15:18;4.35;;;3.97;;
11346;SDS011;5728;42.722;23.258;2022-09-12T14:17:50;4.68;;;4.15;;
11346;SDS011;5728;42.722;23.258;2022-09-12T14:20:20;4.22;;;3.83;;
11346;SDS011;5728;42.722;23.258;2022-09-12T14:22:49;4.53;;;4.13;;
11346;SDS011;5728;42.722;23.258;2022-09-12T14:25:19;4.38;;;3.97;;
11346;SDS011;5728;42.722;23.258;2022-09-12T14:27:48;4.35;;;3.90;;
11346;SDS011;5728;42.722;23.258;2022-09-12T14:30:22;4.43;;;3.97;;
11346;SDS011;5728;42.722;23.258;2022-09-12T14:33:04;4.05;;;3.58;;
11346;SDS011;5728;42.722;23.258;2022-09-12T14:35:42;9.23;;;4.10;;
11346;SDS011;5728;42.722;23.258;2022-09-12T14:38:12;4.05;;;3.65;;
11346;SDS011;5728;42.722;23.258;2022-09-12T14:40:47;4.55;;;4.18;;
11346;SDS011;5728;42.722;23.258;2022-09-12T14:43:19;4.10;;;3.80;;
11346;SDS011;5728;42.722;23.258;2022-09-12T14:45:51;4.22;;;3.90;;
11346;SDS011;5728;42.722;23.258;2022-09-12T14:48:19;4.88;;;4.43;;
11346;SDS011;5728;42.722;23.258;2022-09-12T14:50:47;4.28;;;3.90;;
11346;SDS011;5728;42.722;23.258;2022-09-12T14:56:05;8.60;;;3.70;;
11346;SDS011;5728;42.722;23.258;2022-09-12T14:58:35;3.50;;;3.20;;
11346;SDS011;5728;42.722;23.258;2022-09-12T15:03:52;4.28;;;3.92;;
11346;SDS011;5728;42.722;23.258;2022-09-12T15:06:22;5.78;;;3.78;;
11346;SDS011;5728;42.722;23.258;2022-09-12T15:08:52;4.57;;;4.18;;
11346;SDS011;5728;42.722;23.258;2022-09-12T15:11:20;5.72;;;4.18;;
11346;SDS011;5728;42.722;23.258;2022-09-12T15:13:48;4.38;;;3.97;;
11346;SDS011;5728;42.722;23.258;2022-09-12T15:16:15;4.72;;;4.32;;
11346;SDS011;5728;42.722;23.258;2022-09-12T15:18:42;4.22;;;3.92;;
11346;SDS011;5728;42.722;23.258;2022-09-12T15:21:10;4.32;;;3.85;;
11346;SDS011;5728;42.722;23.258;2022-09-12T15:23:43;2.88;;;2.60;;
11346;SDS011;5728;42.722;23.258;2022-09-12T15:26:13;6.45;;;4.10;;
11346;SDS011;5728;42.722;23.258;2022-09-12T15:28:41;5.75;;;4.13;;
11346;SDS011;5728;42.722;23.258;2022-09-12T15:31:12;4.75;;;4.35;;
11346;SDS011;5728;42.722;23.258;2022-09-12T15:33:51;6.43;;;4.30;;
11346;SDS011;5728;42.722;23.258;2022-09-12T15:36:18;4.78;;;4.38;;
11346;SDS011;5728;42.722;23.258;2022-09-12T15:38:47;4.57;;;4.18;;
11346;SDS011;5728;42.722;23.258;2022-09-12T15:41:16;5.38;;;4.88;;
11346;SDS011;5728;42.722;23.258;2022-09-12T15:43:44;5.50;;;4.18;;